Terminal Aerodrome Forecast
Issued by NWS Charleston, WV

Current Version | Previous Version | Graphics & Text | Print | Product List | Glossary On
Versions: 1 2 3 4 5 6 7 8 9 10 11 12 13 14 15 16 17 18 19 20 21 22 23 24 25
925
FTUS41 KRLX 211138
TAFHTS
TAF
KHTS 211138Z 2112/2212 20006KT 6SM BR BKN008 OVC015
     FM211400 24006KT P6SM OVC012
     FM211600 26008KT 6SM SHRA BKN020
     FM212300 30007KT 6SM BR OVC015
     FM220400 34004KT 4SM BR OVC012=

USA.gov is the U.S. government's official web portal to all federal, state and local government web resources and services.